Latest Weather Observations for Orbost

IDV60801

Issued at 1:52 pm EDT Monday 19 November 2018 (issued every 10 minutes, with the page automatically refreshed every 10 minutes)

About weather observations | Map of weather stations | Latest weather observations for VIC | Other Formats
Station Details ID: 084145 Name: ORBOST Lat: -37.69 Lon: 148.47 Height: 62.65 m
Data from the previous 72 hours. | See also: Recent months at Orbost
Date/Time
EDT
Temp
°C
App
Temp
°C
Dew
Point
°C
Rel
Hum
%
Delta-T
°C
Wind Press
QNH
hPa
Press
MSL
hPa
Rain since
9am
mm
Dir  Spd
km/h
Gust
km/h
Spd
kts
Gust
kts
19/01:30pm 26.7 24.9 10.8 37 9.0 SSE 11 20 6 11 1015.5 - 0.0
19/01:00pm 25.9 23.6 10.5 38 8.6 S 13 20 7 11 1015.9 1015.8 0.0
19/12:30pm 25.1 22.9 10.9 41 8.0 S 13 22 7 12 1016.4 - 0.0
19/12:00pm 24.4 21.8 10.7 42 7.6 S 15 22 8 12 1016.8 - 0.0
19/11:30am 24.2 21.7 11.2 44 7.3 S 15 20 8 11 1017.2 - 0.0
19/11:00am 24.0 22.2 10.7 43 7.4 SSE 11 17 6 9 1017.6 1017.5 0.0
19/10:30am 22.9 20.8 9.7 43 7.2 S 11 19 6 10 1017.9 - 0.0
19/10:00am 23.5 22.6 10.6 44 7.1 E 6 15 3 8 1018.2 1018.1 0.0
19/09:30am 21.8 20.5 10.0 47 6.4 SE 7 11 4 6 1018.5 - 0.0
19/09:00am - - - - - SW 7 11 4 6 1018.8 - 0.0
19/08:30am - - - - - ESE 4 9 2 5 1019.0 - 0.0
19/08:00am - - - - - S 2 6 1 3 1019.1 1019.0 0.0
19/07:30am 14.0 14.0 9.8 76 2.2 CALM 0 4 0 2 1019.1 - 0.0
19/07:00am - - - - - CALM 0 0 0 0 1019.1 1019.0 0.0
19/06:30am - - - - - CALM 0 0 0 0 1019.0 - 0.0
19/06:00am 10.2 9.9 8.6 90 0.8 CALM 0 0 0 0 1018.8 - 0.0
19/05:30am 10.2 9.9 8.8 91 0.7 CALM 0 0 0 0 1018.7 - 0.0
19/05:00am - - - - - CALM 0 0 0 0 1018.6 1018.5 0.0
19/04:30am 9.9 9.4 7.7 86 1.1 CALM 0 0 0 0 1018.6 - 0.0
19/04:00am 11.6 9.9 7.5 76 2.0 E 6 11 3 6 1018.7 1018.6 0.0
19/03:30am 12.7 10.6 8.4 75 2.1 ENE 9 13 5 7 1018.7 - 0.0
19/03:00am 12.9 11.3 8.6 75 2.2 E 7 11 4 6 1018.8 - 0.0
19/02:30am 13.1 11.5 8.8 75 2.2 E 7 11 4 6 1019.1 - 0.0
19/02:00am 13.5 11.5 8.8 73 2.4 ESE 9 15 5 8 1019.4 1019.3 0.0
19/01:30am 13.8 12.2 8.6 71 2.6 ESE 7 11 4 6 1019.7 - 0.0
19/01:00am 14.1 12.5 8.9 71 2.6 E 7 11 4 6 1019.8 1019.7 0.0
19/12:30am 14.9 13.3 8.8 67 3.1 E 7 11 4 6 1020.1 - 0.0
19/12:00am 14.7 13.4 9.1 69 2.9 E 6 9 3 5 1020.2 - 0.0
 
Date/Time
EDT
Temp
°C
App
Temp
°C
Dew
Point
°C
Rel
Hum
%
Delta-T
°C
Wind Press
QNH
hPa
Press
MSL
hPa
Rain since
9am
mm
Dir  Spd
km/h
Gust
km/h
Spd
kts
Gust
kts
18/11:30pm 16.0 14.5 9.2 64 3.5 E 7 11 4 6 1020.3 - 0.0
18/11:00pm 15.9 14.4 9.3 65 3.4 ESE 7 13 4 7 1020.2 1020.1 0.0
18/10:30pm 16.1 14.8 9.3 64 3.5 ESE 6 7 3 4 1020.3 - 0.0
18/10:00pm 17.4 15.6 9.6 60 4.1 ESE 9 17 5 9 1020.2 1020.1 0.0
18/09:30pm 18.2 16.1 9.8 58 4.5 E 11 20 6 11 1020.0 - 0.0
18/09:00pm 18.4 16.7 9.7 57 4.6 ESE 9 15 5 8 1020.0 - 0.0
18/08:30pm 18.3 17.1 10.2 59 4.3 ESE 7 15 4 8 1019.9 - 0.0
18/08:00pm 18.3 17.4 11.4 64 3.8 ESE 7 15 4 8 1019.8 1019.7 0.0
18/07:30pm 18.8 17.7 11.9 64 3.8 SE 9 20 5 11 1019.6 - 0.0
18/07:00pm 19.8 18.3 11.8 60 4.4 SE 11 19 6 10 1019.4 1019.3 0.0
18/06:30pm 20.9 19.4 11.8 56 5.1 SE 11 22 6 12 1019.1 - 0.0
18/06:00pm 20.6 18.2 11.5 56 5.0 SE 15 28 8 15 1019.0 - 0.0
18/05:30pm 21.5 19.1 11.5 53 5.6 SE 15 30 8 16 1019.0 - 0.0
18/05:00pm 21.7 19.0 11.7 53 5.6 SE 17 32 9 17 1019.0 1018.9 0.0
18/04:30pm 21.7 18.5 11.4 52 5.7 SE 19 33 10 18 1019.2 - 0.0
18/04:00pm 21.8 18.4 11.2 51 5.9 SE 20 33 11 18 1019.6 1019.5 0.0
18/03:30pm 21.8 18.0 11.2 51 5.9 SE 22 43 12 23 1019.9 - 0.0
18/03:00pm 22.6 19.7 11.0 48 6.4 SE 17 28 9 15 1020.4 - 0.0
18/02:30pm 21.9 18.3 10.4 48 6.3 SE 20 33 11 18 1020.9 - 0.0
18/02:00pm 21.9 18.6 11.6 52 5.7 SE 20 33 11 18 1021.2 1021.1 0.0
18/01:30pm 21.9 18.4 11.0 50 6.0 SE 20 35 11 19 1021.5 - 0.0
18/01:00pm 21.6 18.1 10.1 48 6.2 SE 19 37 10 20 1021.9 1021.8 0.0
18/12:30pm 21.7 18.3 10.5 49 6.1 SE 19 35 10 19 1022.2 - 0.0
18/12:00pm 22.8 20.5 7.4 37 8.0 SE 9 19 5 10 1022.6 - 0.0
18/11:30am 22.6 20.2 6.8 36 8.1 ENE 9 17 5 9 1023.1 - 0.0
18/11:00am 21.6 19.0 7.8 41 7.2 SE 11 22 6 12 1023.5 1023.5 0.0
18/10:30am 20.2 17.4 6.9 42 6.8 SSE 11 19 6 10 1023.7 - 0.0
18/10:00am 19.2 16.4 7.0 45 6.1 SE 11 20 6 11 1024.0 1023.9 0.0
18/09:30am 18.8 17.0 7.9 49 5.6 SSE 7 15 4 8 1024.1 - 0.0
18/09:00am 18.3 16.6 8.3 52 5.2 ESE 7 13 4 7 1024.4 - -
18/08:30am 14.8 13.9 9.2 69 2.9 SSE 4 7 2 4 1024.5 - -
18/08:00am 11.8 10.7 8.5 80 1.6 S 4 6 2 3 1024.4 1024.3 -
18/07:30am 10.1 9.8 8.7 91 0.7 CALM 0 0 0 0 1024.3 - -
18/07:00am 8.6 8.1 7.8 95 0.4 CALM 0 0 0 0 1024.1 1024.0 -
18/06:30am 8.3 7.4 7.9 97 0.2 ENE 2 2 1 1 1023.7 - -
18/06:00am 7.4 6.3 7.0 97 0.2 ENE 2 4 1 2 1023.5 - -
18/05:30am 7.1 6.0 6.7 97 0.2 NNW 2 4 1 2 1023.4 - -
18/05:00am 7.0 6.2 6.4 96 0.3 CALM 0 0 0 0 1023.2 1023.2 -
18/04:30am 7.7 7.0 7.1 96 0.3 CALM 0 0 0 0 1023.1 - -
18/04:00am 7.7 7.0 7.0 95 0.3 CALM 0 0 0 0 1023.2 1023.2 -
18/03:30am 8.0 7.3 6.9 93 0.5 CALM 0 0 0 0 1023.4 - -
18/03:00am 9.1 8.6 8.0 93 0.5 CALM 0 0 0 0 1023.5 - -
18/02:30am 9.0 8.1 7.6 91 0.7 N 2 2 1 1 1023.9 - -
18/02:00am 9.4 8.6 8.0 91 0.7 N 2 4 1 2 1024.3 1024.2 -
18/01:30am 9.5 9.0 7.8 89 0.8 CALM 0 0 0 0 1024.5 - -
18/01:00am 10.0 9.6 8.3 89 0.8 CALM 0 0 0 0 1024.7 1024.6 0.0
18/12:30am 9.6 9.0 7.4 86 1.0 CALM 0 0 0 0 1025.0 - 0.0
18/12:00am 10.7 10.2 7.9 83 1.4 CALM 0 0 0 0 1025.1 - 0.0
 
Date/Time
EDT
Temp
°C
App
Temp
°C
Dew
Point
°C
Rel
Hum
%
Delta-T
°C
Wind Press
QNH
hPa
Press
MSL
hPa
Rain since
9am
mm
Dir  Spd
km/h
Gust
km/h
Spd
kts
Gust
kts
17/11:30pm 11.2 10.7 7.9 80 1.6 CALM 0 0 0 0 1025.2 - 0.0
17/11:00pm 11.9 11.1 8.2 78 1.8 ESE 2 6 1 3 1025.2 1025.1 0.0
17/10:30pm 12.7 11.5 8.0 73 2.3 E 4 7 2 4 1025.3 - 0.0
17/10:00pm 13.5 12.0 8.4 71 2.5 ESE 6 11 3 6 1025.2 1025.1 0.0
17/09:30pm 13.4 12.0 8.9 74 2.3 E 6 7 3 4 1025.2 - 0.0
17/09:00pm 13.8 12.5 9.3 74 2.3 ESE 6 9 3 5 1024.9 - 0.0
17/08:30pm 14.2 12.8 9.0 71 2.6 ESE 6 9 3 5 1024.7 - 0.0
17/08:00pm 15.0 13.6 8.7 66 3.2 SE 6 11 3 6 1024.4 1024.3 0.0
17/07:30pm 16.4 14.5 9.1 62 3.8 SE 9 17 5 9 1024.2 - 0.0
17/07:00pm 17.4 15.4 8.8 57 4.4 SE 9 19 5 10 1023.9 1023.8 0.0
17/06:30pm 17.8 15.4 8.6 55 4.8 SSE 11 19 6 10 1023.5 - 0.0
17/06:00pm 18.6 16.9 9.7 56 4.7 SSE 9 19 5 10 1023.2 - 0.0
17/05:30pm 18.3 16.0 10.4 60 4.2 SE 13 22 7 12 1023.1 - 0.0
17/05:00pm 18.4 16.3 11.0 62 4.0 SSE 13 24 7 13 1023.1 1023.1 0.0
17/04:30pm 18.4 16.7 11.2 63 3.9 SSE 11 20 6 11 1023.1 - 0.0
17/04:00pm 17.6 15.5 11.2 66 3.5 SSE 13 20 7 11 1023.2 1023.2 0.0
17/03:30pm 18.3 17.0 11.1 63 3.9 SE 9 15 5 8 1023.2 - 0.0
17/03:00pm 17.4 15.7 11.2 67 3.4 SSE 11 20 6 11 1023.4 - 0.0
17/02:30pm 18.2 16.4 10.8 62 4.0 S 11 17 6 9 1023.5 - 0.0
17/02:00pm 18.3 15.7 10.7 61 4.1 SSW 15 22 8 12 1023.4 1023.4 0.0
17/01:30pm 17.7 15.5 10.8 64 3.7 SSW 13 22 7 12 1023.5 - 0.0
17/01:00pm 18.6 16.9 12.4 67 3.4 SSW 13 20 7 11 1023.6 1023.6 0.0
17/12:30pm 17.4 14.8 11.9 70 3.0 SSW 17 22 9 12 1024.0 - 0.0
17/12:00pm 16.9 14.0 11.0 68 3.2 SSW 17 24 9 13 1023.9 - 0.0
17/11:30am 17.6 16.1 10.7 64 3.7 SSW 9 15 5 8 1024.0 - 0.0
17/11:00am 17.1 15.5 10.2 64 3.6 SW 9 17 5 9 1024.0 1023.9 0.0
17/10:30am 17.5 15.8 9.9 61 4.0 WSW 9 13 5 7 1023.9 - 0.0
17/10:00am 16.7 14.6 9.9 64 3.6 WSW 11 20 6 11 1023.7 1023.7 0.0
17/09:30am 15.4 13.2 9.5 68 3.1 W 11 15 6 8 1023.7 - 0.0
17/09:00am 15.6 14.0 10.2 70 2.8 W 9 15 5 8 1023.5 - 0.0
17/08:30am 14.8 12.7 9.8 72 2.6 W 11 19 6 10 1023.2 - 0.0
17/08:00am 14.5 12.9 10.1 75 2.3 WNW 9 17 5 9 1023.0 1023.0 0.0
17/07:30am 13.6 11.9 10.0 79 1.9 WNW 9 15 5 8 1022.8 - 0.0
17/07:00am 13.3 11.7 10.1 81 1.6 WNW 9 13 5 7 1022.6 1022.5 0.0
17/06:30am 13.2 11.7 10.4 83 1.5 WNW 9 15 5 8 1022.3 - 0.0
17/06:00am 12.9 10.9 10.3 84 1.3 WNW 11 17 6 9 1022.0 - 0.0
17/05:30am 12.6 11.0 10.3 86 1.2 WNW 9 15 5 8 1021.5 - 0.0
17/05:00am 13.1 11.2 10.5 84 1.4 WNW 11 15 6 8 1021.3 1021.2 0.0
17/04:30am 13.5 12.5 11.0 85 1.3 W 7 11 4 6 1021.0 - 0.0
17/04:00am 14.0 12.7 11.3 84 1.4 W 9 13 5 7 1020.7 1020.6 0.0
17/03:30am 14.3 12.8 12.0 86 1.2 WSW 11 19 6 10 1020.8 - 0.0
17/03:00am 14.2 13.7 12.6 90 0.9 SW 7 11 4 6 1020.7 - 0.0
17/02:30am 14.5 13.7 12.9 90 0.9 WSW 9 17 5 9 1020.6 - 0.0
17/02:00am 15.0 13.4 12.9 87 1.2 WSW 13 20 7 11 1020.6 1020.5 0.0
17/01:30am 15.6 15.2 13.1 85 1.4 W 7 11 4 6 1020.6 - 0.0
17/01:00am 15.6 15.2 13.1 85 1.4 W 7 11 4 6 1020.6 1020.5 0.0
17/12:30am 15.7 15.5 13.0 84 1.5 W 6 9 3 5 1020.7 - 0.0
17/12:00am 15.8 15.6 12.9 83 1.6 W 6 11 3 6 1020.8 - 0.0
 
Date/Time
EDT
Temp
°C
App
Temp
°C
Dew
Point
°C
Rel
Hum
%
Delta-T
°C
Wind Press
QNH
hPa
Press
MSL
hPa
Rain since
9am
mm
Dir  Spd
km/h
Gust
km/h
Spd
kts
Gust
kts
16/11:30pm 16.0 15.4 12.4 79 2.0 W 7 11 4 6 1020.7 - 0.0
16/11:00pm 16.4 15.5 11.3 72 2.7 WSW 7 11 4 6 1020.6 1020.5 0.0
16/10:30pm 16.6 15.7 10.7 68 3.2 W 6 7 3 4 1020.4 - 0.0
16/10:00pm 17.0 15.8 10.4 65 3.5 W 7 11 4 6 1020.2 1020.1 0.0
16/09:30pm 17.2 16.0 10.3 64 3.7 W 7 11 4 6 1020.0 - 0.0
16/09:00pm 17.6 16.6 10.2 62 3.9 W 6 7 3 4 1019.4 - 0.0
16/08:30pm 17.8 16.8 10.4 62 4.0 W 6 9 3 5 1019.2 - 0.0
16/08:00pm 18.2 17.1 10.1 59 4.3 SW 6 9 3 5 1018.9 1018.8 0.0
16/07:30pm 18.6 17.5 9.9 57 4.6 SSW 6 9 3 5 1018.6 - 0.0
16/07:00pm 19.1 17.6 9.0 52 5.3 SSW 7 11 4 6 1018.2 1018.1 0.0
16/06:30pm 19.1 16.6 8.1 49 5.7 S 11 15 6 8 1018.0 - 0.0
16/06:00pm 20.6 17.8 8.6 46 6.3 SSE 13 22 7 12 1017.5 - 0.0
16/05:30pm 21.4 18.8 9.3 46 6.5 S 13 24 7 13 1017.4 - 0.0
16/05:00pm 20.9 17.2 7.9 43 6.7 S 17 28 9 15 1017.2 1017.1 0.0
16/04:30pm 22.1 19.1 9.3 44 6.9 S 15 22 8 12 1016.8 - 0.0
16/04:00pm 22.3 18.9 9.1 43 7.1 S 17 28 9 15 1016.5 1016.4 0.0
16/03:30pm 22.8 20.2 9.2 42 7.3 SSE 13 22 7 12 1016.6 - 0.0
16/03:00pm 22.5 19.3 8.6 41 7.4 S 15 20 8 11 1017.0 - 0.0
16/02:30pm 22.9 20.3 10.7 46 6.8 SSE 15 26 8 14 1017.1 - 0.0
16/02:00pm 22.4 19.7 10.5 47 6.5 SE 15 26 8 14 1017.3 1017.2 0.0

Other Formats:

Comma delimited format used in spreadsheet applications
http://www.bom.gov.au/fwo/IDV60801/IDV60801.95918.axf

JavaScript Object Notation format (JSON) in row-major order
http://www.bom.gov.au/fwo/IDV60801/IDV60801.95918.json